sensor_id;sensor_type;location;lat;lon;timestamp;P1;durP1;ratioP1;P2;durP2;ratioP2
27265;SDS011;14766;51.380;13.762;2022-09-16T00:00:54;1.27;;;0.80;;
27265;SDS011;14766;51.380;13.762;2022-09-16T00:03:21;1.33;;;0.68;;
27265;SDS011;14766;51.380;13.762;2022-09-16T00:05:50;1.38;;;0.77;;
27265;SDS011;14766;51.380;13.762;2022-09-16T00:08:18;1.92;;;0.95;;
27265;SDS011;14766;51.380;13.762;2022-09-16T00:10:46;2.00;;;0.75;;
27265;SDS011;14766;51.380;13.762;2022-09-16T00:13:14;3.47;;;1.27;;
27265;SDS011;14766;51.380;13.762;2022-09-16T00:15:42;2.70;;;0.70;;
27265;SDS011;14766;51.380;13.762;2022-09-16T00:18:12;1.20;;;0.77;;
27265;SDS011;14766;51.380;13.762;2022-09-16T00:20:44;1.20;;;0.80;;
27265;SDS011;14766;51.380;13.762;2022-09-16T00:23:12;1.60;;;0.80;;
27265;SDS011;14766;51.380;13.762;2022-09-16T00:25:39;3.53;;;1.05;;
27265;SDS011;14766;51.380;13.762;2022-09-16T00:28:07;1.80;;;0.80;;
27265;SDS011;14766;51.380;13.762;2022-09-16T00:30:34;1.77;;;0.65;;
27265;SDS011;14766;51.380;13.762;2022-09-16T00:33:02;1.38;;;0.77;;
27265;SDS011;14766;51.380;13.762;2022-09-16T00:35:29;3.03;;;1.10;;
27265;SDS011;14766;51.380;13.762;2022-09-16T00:37:55;1.98;;;1.08;;
27265;SDS011;14766;51.380;13.762;2022-09-16T00:40:23;2.20;;;0.77;;
27265;SDS011;14766;51.380;13.762;2022-09-16T00:42:50;3.55;;;0.68;;
27265;SDS011;14766;51.380;13.762;2022-09-16T00:45:18;2.28;;;1.10;;
27265;SDS011;14766;51.380;13.762;2022-09-16T00:47:52;2.80;;;1.00;;
27265;SDS011;14766;51.380;13.762;2022-09-16T00:50:31;3.22;;;1.25;;
27265;SDS011;14766;51.380;13.762;2022-09-16T00:53:06;2.05;;;0.70;;
27265;SDS011;14766;51.380;13.762;2022-09-16T00:55:39;1.83;;;0.80;;
27265;SDS011;14766;51.380;13.762;2022-09-16T00:58:26;1.70;;;0.70;;
27265;SDS011;14766;51.380;13.762;2022-09-16T01:01:02;1.15;;;0.70;;
27265;SDS011;14766;51.380;13.762;2022-09-16T01:03:39;1.45;;;0.70;;
27265;SDS011;14766;51.380;13.762;2022-09-16T01:06:11;1.67;;;0.77;;
27265;SDS011;14766;51.380;13.762;2022-09-16T01:08:40;1.45;;;0.75;;
27265;SDS011;14766;51.380;13.762;2022-09-16T01:11:08;1.80;;;1.00;;
27265;SDS011;14766;51.380;13.762;2022-09-16T01:13:36;1.40;;;0.80;;
27265;SDS011;14766;51.380;13.762;2022-09-16T01:22:08;2.28;;;0.80;;
27265;SDS011;14766;51.380;13.762;2022-09-16T01:28:24;1.23;;;0.80;;
27265;SDS011;14766;51.380;13.762;2022-09-16T01:31:14;1.60;;;0.73;;
27265;SDS011;14766;51.380;13.762;2022-09-16T01:36:54;2.00;;;0.80;;
27265;SDS011;14766;51.380;13.762;2022-09-16T01:39:30;2.88;;;0.70;;
27265;SDS011;14766;51.380;13.762;2022-09-16T01:45:55;1.05;;;0.63;;
27265;SDS011;14766;51.380;13.762;2022-09-16T01:48:45;2.05;;;0.80;;
27265;SDS011;14766;51.380;13.762;2022-09-16T01:53:50;2.28;;;0.80;;
27265;SDS011;14766;51.380;13.762;2022-09-16T01:56:28;0.90;;;0.50;;
27265;SDS011;14766;51.380;13.762;2022-09-16T01:59:14;1.67;;;0.80;;
27265;SDS011;14766;51.380;13.762;2022-09-16T02:02:11;2.92;;;0.80;;
27265;SDS011;14766;51.380;13.762;2022-09-16T02:04:55;3.38;;;0.70;;
27265;SDS011;14766;51.380;13.762;2022-09-16T02:07:25;2.83;;;0.90;;
27265;SDS011;14766;51.380;13.762;2022-09-16T02:09:59;1.88;;;0.80;;
27265;SDS011;14766;51.380;13.762;2022-09-16T02:12:35;1.52;;;0.65;;
27265;SDS011;14766;51.380;13.762;2022-09-16T02:15:06;2.08;;;0.73;;
27265;SDS011;14766;51.380;13.762;2022-09-16T02:17:40;2.88;;;0.80;;
27265;SDS011;14766;51.380;13.762;2022-09-16T02:20:12;1.67;;;1.00;;
27265;SDS011;14766;51.380;13.762;2022-09-16T02:22:43;2.25;;;0.90;;
27265;SDS011;14766;51.380;13.762;2022-09-16T02:25:19;1.25;;;0.80;;
27265;SDS011;14766;51.380;13.762;2022-09-16T02:27:48;2.22;;;0.80;;
27265;SDS011;14766;51.380;13.762;2022-09-16T02:30:18;2.60;;;0.73;;
27265;SDS011;14766;51.380;13.762;2022-09-16T02:33:05;1.85;;;0.70;;
27265;SDS011;14766;51.380;13.762;2022-09-16T02:35:35;2.65;;;0.80;;
27265;SDS011;14766;51.380;13.762;2022-09-16T02:38:13;2.65;;;0.70;;
27265;SDS011;14766;51.380;13.762;2022-09-16T02:40:46;1.88;;;0.60;;
27265;SDS011;14766;51.380;13.762;2022-09-16T02:43:17;1.88;;;0.70;;
27265;SDS011;14766;51.380;13.762;2022-09-16T02:45:46;1.08;;;0.57;;
27265;SDS011;14766;51.380;13.762;2022-09-16T02:51:11;2.25;;;1.23;;
27265;SDS011;14766;51.380;13.762;2022-09-16T02:53:50;2.83;;;1.02;;
27265;SDS011;14766;51.380;13.762;2022-09-16T02:56:26;1.83;;;0.77;;
27265;SDS011;14766;51.380;13.762;2022-09-16T02:59:01;0.73;;;0.70;;
27265;SDS011;14766;51.380;13.762;2022-09-16T03:01:32;1.67;;;0.90;;
27265;SDS011;14766;51.380;13.762;2022-09-16T03:04:03;0.73;;;0.60;;
27265;SDS011;14766;51.380;13.762;2022-09-16T03:06:31;2.15;;;0.80;;
27265;SDS011;14766;51.380;13.762;2022-09-16T03:09:02;1.70;;;0.73;;
27265;SDS011;14766;51.380;13.762;2022-09-16T03:17:44;1.23;;;0.70;;
27265;SDS011;14766;51.380;13.762;2022-09-16T03:22:58;3.70;;;0.95;;
27265;SDS011;14766;51.380;13.762;2022-09-16T03:25:50;1.95;;;0.77;;
27265;SDS011;14766;51.380;13.762;2022-09-16T03:31:33;1.30;;;0.70;;
27265;SDS011;14766;51.380;13.762;2022-09-16T03:36:49;1.88;;;0.90;;
27265;SDS011;14766;51.380;13.762;2022-09-16T03:39:25;0.95;;;0.70;;
27265;SDS011;14766;51.380;13.762;2022-09-16T03:41:53;2.65;;;0.65;;
27265;SDS011;14766;51.380;13.762;2022-09-16T03:44:28;2.15;;;0.70;;
27265;SDS011;14766;51.380;13.762;2022-09-16T03:47:03;2.78;;;0.70;;
27265;SDS011;14766;51.380;13.762;2022-09-16T03:49:35;2.43;;;0.70;;
27265;SDS011;14766;51.380;13.762;2022-09-16T03:52:03;1.90;;;0.70;;
27265;SDS011;14766;51.380;13.762;2022-09-16T03:54:34;0.75;;;0.60;;
27265;SDS011;14766;51.380;13.762;2022-09-16T03:57:03;1.98;;;0.75;;
27265;SDS011;14766;51.380;13.762;2022-09-16T03:59:31;1.63;;;0.88;;
27265;SDS011;14766;51.380;13.762;2022-09-16T04:01:58;1.77;;;0.82;;
27265;SDS011;14766;51.380;13.762;2022-09-16T04:04:26;3.50;;;1.00;;
27265;SDS011;14766;51.380;13.762;2022-09-16T04:06:53;2.35;;;0.90;;
27265;SDS011;14766;51.380;13.762;2022-09-16T04:09:20;2.70;;;0.90;;
27265;SDS011;14766;51.380;13.762;2022-09-16T04:11:47;4.25;;;1.05;;
27265;SDS011;14766;51.380;13.762;2022-09-16T04:14:14;3.42;;;1.00;;
27265;SDS011;14766;51.380;13.762;2022-09-16T04:16:41;2.10;;;0.90;;
27265;SDS011;14766;51.380;13.762;2022-09-16T04:19:11;2.13;;;1.13;;
27265;SDS011;14766;51.380;13.762;2022-09-16T04:21:40;4.35;;;1.27;;
27265;SDS011;14766;51.380;13.762;2022-09-16T04:24:09;1.58;;;0.90;;
27265;SDS011;14766;51.380;13.762;2022-09-16T04:26:39;3.45;;;0.80;;
27265;SDS011;14766;51.380;13.762;2022-09-16T04:29:06;1.25;;;0.80;;
27265;SDS011;14766;51.380;13.762;2022-09-16T04:31:34;3.72;;;1.23;;
27265;SDS011;14766;51.380;13.762;2022-09-16T04:34:02;3.80;;;1.00;;
27265;SDS011;14766;51.380;13.762;2022-09-16T04:36:33;3.33;;;1.00;;
27265;SDS011;14766;51.380;13.762;2022-09-16T04:39:00;2.17;;;1.02;;
27265;SDS011;14766;51.380;13.762;2022-09-16T04:41:27;3.22;;;1.30;;
27265;SDS011;14766;51.380;13.762;2022-09-16T04:43:55;3.05;;;1.20;;
27265;SDS011;14766;51.380;13.762;2022-09-16T04:46:27;1.55;;;0.90;;
27265;SDS011;14766;51.380;13.762;2022-09-16T04:48:55;2.13;;;1.08;;
27265;SDS011;14766;51.380;13.762;2022-09-16T04:51:22;2.47;;;1.63;;
27265;SDS011;14766;51.380;13.762;2022-09-16T04:53:55;2.90;;;1.10;;
27265;SDS011;14766;51.380;13.762;2022-09-16T04:56:26;2.55;;;1.20;;
27265;SDS011;14766;51.380;13.762;2022-09-16T04:59:00;3.75;;;1.50;;
27265;SDS011;14766;51.380;13.762;2022-09-16T05:01:30;3.72;;;1.50;;
27265;SDS011;14766;51.380;13.762;2022-09-16T05:04:01;3.13;;;1.48;;
27265;SDS011;14766;51.380;13.762;2022-09-16T05:06:32;2.35;;;1.13;;
27265;SDS011;14766;51.380;13.762;2022-09-16T05:09:05;1.98;;;1.00;;
27265;SDS011;14766;51.380;13.762;2022-09-16T05:11:34;1.70;;;0.90;;
27265;SDS011;14766;51.380;13.762;2022-09-16T05:14:05;2.72;;;1.15;;
27265;SDS011;14766;51.380;13.762;2022-09-16T05:16:34;3.10;;;1.25;;
27265;SDS011;14766;51.380;13.762;2022-09-16T05:19:02;3.25;;;1.30;;
27265;SDS011;14766;51.380;13.762;2022-09-16T05:21:31;3.35;;;1.20;;
27265;SDS011;14766;51.380;13.762;2022-09-16T05:24:00;4.22;;;1.20;;
27265;SDS011;14766;51.380;13.762;2022-09-16T05:26:29;3.22;;;0.90;;
27265;SDS011;14766;51.380;13.762;2022-09-16T05:29:02;3.55;;;0.80;;
27265;SDS011;14766;51.380;13.762;2022-09-16T05:31:32;3.28;;;1.00;;
27265;SDS011;14766;51.380;13.762;2022-09-16T05:34:14;1.95;;;1.30;;
27265;SDS011;14766;51.380;13.762;2022-09-16T05:36:44;1.90;;;1.33;;
27265;SDS011;14766;51.380;13.762;2022-09-16T05:39:13;2.35;;;0.80;;
27265;SDS011;14766;51.380;13.762;2022-09-16T05:41:52;1.90;;;1.00;;
27265;SDS011;14766;51.380;13.762;2022-09-16T05:44:23;1.75;;;0.90;;
27265;SDS011;14766;51.380;13.762;2022-09-16T05:46:51;3.97;;;1.25;;
27265;SDS011;14766;51.380;13.762;2022-09-16T05:49:20;1.58;;;0.90;;
27265;SDS011;14766;51.380;13.762;2022-09-16T05:51:49;1.85;;;1.00;;
27265;SDS011;14766;51.380;13.762;2022-09-16T05:54:17;2.00;;;1.02;;
27265;SDS011;14766;51.380;13.762;2022-09-16T05:56:45;2.53;;;0.93;;
27265;SDS011;14766;51.380;13.762;2022-09-16T05:59:13;2.38;;;1.08;;
27265;SDS011;14766;51.380;13.762;2022-09-16T06:01:42;4.20;;;1.10;;
27265;SDS011;14766;51.380;13.762;2022-09-16T06:04:11;1.20;;;0.73;;
27265;SDS011;14766;51.380;13.762;2022-09-16T06:06:43;3.17;;;0.88;;
27265;SDS011;14766;51.380;13.762;2022-09-16T06:09:13;2.30;;;0.90;;
27265;SDS011;14766;51.380;13.762;2022-09-16T06:11:41;2.78;;;0.90;;
27265;SDS011;14766;51.380;13.762;2022-09-16T06:14:10;3.25;;;1.00;;
27265;SDS011;14766;51.380;13.762;2022-09-16T06:16:38;3.95;;;1.35;;
27265;SDS011;14766;51.380;13.762;2022-09-16T06:19:07;2.80;;;1.45;;
27265;SDS011;14766;51.380;13.762;2022-09-16T06:21:39;2.42;;;1.17;;
27265;SDS011;14766;51.380;13.762;2022-09-16T06:24:07;2.85;;;1.13;;
27265;SDS011;14766;51.380;13.762;2022-09-16T06:26:35;3.65;;;1.40;;
27265;SDS011;14766;51.380;13.762;2022-09-16T06:29:06;1.65;;;0.80;;
27265;SDS011;14766;51.380;13.762;2022-09-16T06:31:35;3.47;;;1.10;;
27265;SDS011;14766;51.380;13.762;2022-09-16T06:34:03;2.65;;;1.00;;
27265;SDS011;14766;51.380;13.762;2022-09-16T06:36:36;2.22;;;1.00;;
27265;SDS011;14766;51.380;13.762;2022-09-16T06:39:09;1.65;;;0.93;;
27265;SDS011;14766;51.380;13.762;2022-09-16T06:41:38;2.38;;;1.00;;
27265;SDS011;14766;51.380;13.762;2022-09-16T06:44:06;4.70;;;1.20;;
27265;SDS011;14766;51.380;13.762;2022-09-16T06:46:33;1.60;;;0.80;;
27265;SDS011;14766;51.380;13.762;2022-09-16T06:49:03;2.72;;;0.98;;
27265;SDS011;14766;51.380;13.762;2022-09-16T06:51:32;6.10;;;1.20;;
27265;SDS011;14766;51.380;13.762;2022-09-16T06:54:04;4.20;;;1.40;;
27265;SDS011;14766;51.380;13.762;2022-09-16T06:56:33;2.72;;;1.20;;
27265;SDS011;14766;51.380;13.762;2022-09-16T06:59:03;4.13;;;1.02;;
27265;SDS011;14766;51.380;13.762;2022-09-16T07:01:31;2.38;;;0.88;;
27265;SDS011;14766;51.380;13.762;2022-09-16T07:04:03;2.75;;;1.10;;
27265;SDS011;14766;51.380;13.762;2022-09-16T07:06:32;2.65;;;1.08;;
27265;SDS011;14766;51.380;13.762;2022-09-16T07:09:20;1.52;;;0.73;;
27265;SDS011;14766;51.380;13.762;2022-09-16T07:11:49;1.70;;;0.90;;
27265;SDS011;14766;51.380;13.762;2022-09-16T07:14:17;2.60;;;1.10;;
27265;SDS011;14766;51.380;13.762;2022-09-16T07:16:45;2.05;;;0.90;;
27265;SDS011;14766;51.380;13.762;2022-09-16T07:19:14;6.07;;;1.27;;
27265;SDS011;14766;51.380;13.762;2022-09-16T07:21:41;3.58;;;1.10;;
27265;SDS011;14766;51.380;13.762;2022-09-16T07:24:10;3.92;;;1.35;;
27265;SDS011;14766;51.380;13.762;2022-09-16T07:26:39;3.35;;;1.02;;
27265;SDS011;14766;51.380;13.762;2022-09-16T07:29:09;3.08;;;1.30;;
27265;SDS011;14766;51.380;13.762;2022-09-16T07:31:38;2.28;;;0.98;;
27265;SDS011;14766;51.380;13.762;2022-09-16T07:34:08;4.90;;;1.20;;
27265;SDS011;14766;51.380;13.762;2022-09-16T07:36:38;3.08;;;1.30;;
27265;SDS011;14766;51.380;13.762;2022-09-16T07:39:10;2.63;;;1.00;;
27265;SDS011;14766;51.380;13.762;2022-09-16T07:41:40;2.47;;;1.20;;
27265;SDS011;14766;51.380;13.762;2022-09-16T07:44:10;2.53;;;1.30;;
27265;SDS011;14766;51.380;13.762;2022-09-16T07:46:39;4.00;;;1.60;;
27265;SDS011;14766;51.380;13.762;2022-09-16T07:49:06;3.17;;;1.00;;
27265;SDS011;14766;51.380;13.762;2022-09-16T07:51:36;3.17;;;1.20;;
27265;SDS011;14766;51.380;13.762;2022-09-16T07:54:08;4.22;;;1.25;;
27265;SDS011;14766;51.380;13.762;2022-09-16T07:56:38;2.65;;;1.08;;
27265;SDS011;14766;51.380;13.762;2022-09-16T07:59:10;6.53;;;1.45;;
27265;SDS011;14766;51.380;13.762;2022-09-16T08:01:44;2.10;;;1.00;;
27265;SDS011;14766;51.380;13.762;2022-09-16T08:04:13;1.75;;;0.73;;
27265;SDS011;14766;51.380;13.762;2022-09-16T08:06:40;1.95;;;0.93;;
27265;SDS011;14766;51.380;13.762;2022-09-16T08:09:07;3.10;;;0.90;;
27265;SDS011;14766;51.380;13.762;2022-09-16T08:11:54;2.30;;;0.85;;
27265;SDS011;14766;51.380;13.762;2022-09-16T08:14:21;2.17;;;0.90;;
27265;SDS011;14766;51.380;13.762;2022-09-16T08:16:48;3.70;;;0.82;;
27265;SDS011;14766;51.380;13.762;2022-09-16T08:19:18;2.97;;;1.30;;
27265;SDS011;14766;51.380;13.762;2022-09-16T08:21:49;3.45;;;0.90;;
27265;SDS011;14766;51.380;13.762;2022-09-16T08:24:16;2.47;;;0.90;;
27265;SDS011;14766;51.380;13.762;2022-09-16T08:26:43;1.65;;;0.95;;
27265;SDS011;14766;51.380;13.762;2022-09-16T08:29:11;3.30;;;0.93;;
27265;SDS011;14766;51.380;13.762;2022-09-16T08:31:38;1.63;;;0.80;;
27265;SDS011;14766;51.380;13.762;2022-09-16T08:34:06;2.40;;;1.15;;
27265;SDS011;14766;51.380;13.762;2022-09-16T08:36:33;2.28;;;0.93;;
27265;SDS011;14766;51.380;13.762;2022-09-16T08:39:02;3.78;;;1.17;;
27265;SDS011;14766;51.380;13.762;2022-09-16T08:49:19;1.92;;;0.63;;
27265;SDS011;14766;51.380;13.762;2022-09-16T08:51:57;2.15;;;0.70;;
27265;SDS011;14766;51.380;13.762;2022-09-16T08:54:42;3.05;;;0.90;;
27265;SDS011;14766;51.380;13.762;2022-09-16T08:57:17;2.88;;;0.73;;
27265;SDS011;14766;51.380;13.762;2022-09-16T08:59:58;3.00;;;0.80;;
27265;SDS011;14766;51.380;13.762;2022-09-16T09:02:40;1.88;;;0.73;;
27265;SDS011;14766;51.380;13.762;2022-09-16T09:05:13;1.33;;;0.70;;
27265;SDS011;14766;51.380;13.762;2022-09-16T09:07:56;2.28;;;0.65;;
27265;SDS011;14766;51.380;13.762;2022-09-16T09:10:47;2.63;;;0.70;;
27265;SDS011;14766;51.380;13.762;2022-09-16T09:15:52;2.75;;;1.00;;
27265;SDS011;14766;51.380;13.762;2022-09-16T09:24:18;3.28;;;1.10;;
27265;SDS011;14766;51.380;13.762;2022-09-16T09:27:26;1.95;;;0.90;;
27265;SDS011;14766;51.380;13.762;2022-09-16T09:29:49;2.00;;;0.80;;
27265;SDS011;14766;51.380;13.762;2022-09-16T09:35:21;3.78;;;1.10;;
27265;SDS011;14766;51.380;13.762;2022-09-16T09:40:57;2.25;;;0.95;;
27265;SDS011;14766;51.380;13.762;2022-09-16T09:43:46;2.90;;;1.20;;
27265;SDS011;14766;51.380;13.762;2022-09-16T09:46:24;1.95;;;0.90;;
27265;SDS011;14766;51.380;13.762;2022-09-16T09:49:06;1.73;;;0.73;;
27265;SDS011;14766;51.380;13.762;2022-09-16T09:51:44;1.42;;;0.85;;
27265;SDS011;14766;51.380;13.762;2022-09-16T10:00:04;1.95;;;0.70;;
27265;SDS011;14766;51.380;13.762;2022-09-16T10:02:41;2.20;;;0.75;;
27265;SDS011;14766;51.380;13.762;2022-09-16T10:08:01;1.80;;;0.70;;
27265;SDS011;14766;51.380;13.762;2022-09-16T10:10:46;1.33;;;0.73;;
27265;SDS011;14766;51.380;13.762;2022-09-16T10:13:19;1.77;;;0.73;;
27265;SDS011;14766;51.380;13.762;2022-09-16T10:15:48;1.90;;;0.50;;
27265;SDS011;14766;51.380;13.762;2022-09-16T10:18:27;0.90;;;0.63;;
27265;SDS011;14766;51.380;13.762;2022-09-16T10:23:28;1.20;;;0.60;;
27265;SDS011;14766;51.380;13.762;2022-09-16T10:26:03;1.52;;;0.70;;
27265;SDS011;14766;51.380;13.762;2022-09-16T10:28:34;1.05;;;0.50;;
27265;SDS011;14766;51.380;13.762;2022-09-16T10:31:02;0.75;;;0.55;;
27265;SDS011;14766;51.380;13.762;2022-09-16T10:33:33;4.05;;;1.20;;
27265;SDS011;14766;51.380;13.762;2022-09-16T10:38:39;1.92;;;1.27;;
27265;SDS011;14766;51.380;13.762;2022-09-16T10:41:22;0.85;;;0.70;;
27265;SDS011;14766;51.380;13.762;2022-09-16T10:44:12;1.33;;;0.57;;
27265;SDS011;14766;51.380;13.762;2022-09-16T10:46:51;2.05;;;0.82;;
27265;SDS011;14766;51.380;13.762;2022-09-16T10:49:51;1.25;;;1.00;;
27265;SDS011;14766;51.380;13.762;2022-09-16T10:52:24;1.83;;;0.93;;
27265;SDS011;14766;51.380;13.762;2022-09-16T10:54:53;2.05;;;1.05;;
27265;SDS011;14766;51.380;13.762;2022-09-16T10:59:56;2.35;;;0.82;;
27265;SDS011;14766;51.380;13.762;2022-09-16T11:11:06;1.52;;;0.88;;
27265;SDS011;14766;51.380;13.762;2022-09-16T11:19:29;0.90;;;0.70;;
27265;SDS011;14766;51.380;13.762;2022-09-16T12:07:20;1.02;;;0.93;;
27265;SDS011;14766;51.380;13.762;2022-09-16T12:12:28;2.40;;;0.73;;
27265;SDS011;14766;51.380;13.762;2022-09-16T12:15:14;1.60;;;0.63;;
27265;SDS011;14766;51.380;13.762;2022-09-16T12:17:51;0.80;;;0.63;;
27265;SDS011;14766;51.380;13.762;2022-09-16T12:20:26;2.53;;;0.85;;
27265;SDS011;14766;51.380;13.762;2022-09-16T12:23:02;1.52;;;0.63;;
27265;SDS011;14766;51.380;13.762;2022-09-16T12:26:15;0.85;;;0.70;;
27265;SDS011;14766;51.380;13.762;2022-09-16T12:31:26;1.33;;;0.70;;
27265;SDS011;14766;51.380;13.762;2022-09-16T12:34:00;0.80;;;0.70;;
27265;SDS011;14766;51.380;13.762;2022-09-16T12:39:46;1.20;;;0.45;;
27265;SDS011;14766;51.380;13.762;2022-09-16T12:42:21;1.50;;;0.50;;
27265;SDS011;14766;51.380;13.762;2022-09-16T12:45:23;0.40;;;0.30;;
27265;SDS011;14766;51.380;13.762;2022-09-16T12:48:04;1.60;;;0.80;;
27265;SDS011;14766;51.380;13.762;2022-09-16T12:56:19;0.95;;;0.50;;
27265;SDS011;14766;51.380;13.762;2022-09-16T13:02:09;2.42;;;0.40;;
27265;SDS011;14766;51.380;13.762;2022-09-16T13:04:44;0.50;;;0.45;;
27265;SDS011;14766;51.380;13.762;2022-09-16T13:07:19;1.55;;;0.50;;
27265;SDS011;14766;51.380;13.762;2022-09-16T13:09:58;3.03;;;0.60;;
27265;SDS011;14766;51.380;13.762;2022-09-16T13:12:32;0.43;;;0.38;;
27265;SDS011;14766;51.380;13.762;2022-09-16T13:15:19;0.63;;;0.50;;
27265;SDS011;14766;51.380;13.762;2022-09-16T13:17:50;1.00;;;0.70;;
27265;SDS011;14766;51.380;13.762;2022-09-16T13:20:24;1.42;;;0.80;;
27265;SDS011;14766;51.380;13.762;2022-09-16T13:23:03;2.75;;;0.70;;
27265;SDS011;14766;51.380;13.762;2022-09-16T13:25:46;0.75;;;0.57;;
27265;SDS011;14766;51.380;13.762;2022-09-16T13:31:17;0.57;;;0.50;;
27265;SDS011;14766;51.380;13.762;2022-09-16T13:33:47;0.40;;;0.30;;
27265;SDS011;14766;51.380;13.762;2022-09-16T13:36:29;1.13;;;0.60;;
27265;SDS011;14766;51.380;13.762;2022-09-16T13:39:02;1.35;;;0.60;;
27265;SDS011;14766;51.380;13.762;2022-09-16T13:49:40;1.13;;;0.68;;
27265;SDS011;14766;51.380;13.762;2022-09-16T13:52:20;0.80;;;0.55;;
27265;SDS011;14766;51.380;13.762;2022-09-16T13:54:55;1.02;;;0.55;;
27265;SDS011;14766;51.380;13.762;2022-09-16T14:00:25;1.48;;;0.70;;
27265;SDS011;14766;51.380;13.762;2022-09-16T14:03:16;0.80;;;0.60;;
27265;SDS011;14766;51.380;13.762;2022-09-16T14:15:02;0.90;;;0.40;;
27265;SDS011;14766;51.380;13.762;2022-09-16T14:17:39;0.30;;;0.30;;
27265;SDS011;14766;51.380;13.762;2022-09-16T14:20:16;1.08;;;0.60;;
27265;SDS011;14766;51.380;13.762;2022-09-16T14:22:47;0.40;;;0.40;;
27265;SDS011;14766;51.380;13.762;2022-09-16T14:25:26;1.15;;;0.57;;
27265;SDS011;14766;51.380;13.762;2022-09-16T14:30:35;1.52;;;0.70;;
27265;SDS011;14766;51.380;13.762;2022-09-16T14:33:02;1.38;;;0.75;;
27265;SDS011;14766;51.380;13.762;2022-09-16T14:35:29;0.90;;;0.57;;
27265;SDS011;14766;51.380;13.762;2022-09-16T14:37:58;0.77;;;0.50;;
27265;SDS011;14766;51.380;13.762;2022-09-16T14:40:28;2.45;;;0.60;;
27265;SDS011;14766;51.380;13.762;2022-09-16T14:45:29;1.85;;;0.70;;
27265;SDS011;14766;51.380;13.762;2022-09-16T14:47:58;1.73;;;0.95;;
27265;SDS011;14766;51.380;13.762;2022-09-16T14:50:27;1.50;;;0.60;;
27265;SDS011;14766;51.380;13.762;2022-09-16T14:53:04;1.23;;;0.65;;
27265;SDS011;14766;51.380;13.762;2022-09-16T14:55:34;1.95;;;0.70;;
27265;SDS011;14766;51.380;13.762;2022-09-16T14:58:07;1.30;;;0.80;;
27265;SDS011;14766;51.380;13.762;2022-09-16T15:01:11;1.75;;;0.88;;
27265;SDS011;14766;51.380;13.762;2022-09-16T15:06:30;1.70;;;1.08;;
27265;SDS011;14766;51.380;13.762;2022-09-16T15:09:13;2.05;;;1.20;;
27265;SDS011;14766;51.380;13.762;2022-09-16T15:11:56;4.10;;;1.70;;
27265;SDS011;14766;51.380;13.762;2022-09-16T15:14:24;2.40;;;1.83;;
27265;SDS011;14766;51.380;13.762;2022-09-16T15:16:53;11.68;;;8.18;;
27265;SDS011;14766;51.380;13.762;2022-09-16T15:19:33;5.95;;;3.75;;
27265;SDS011;14766;51.380;13.762;2022-09-16T15:22:03;1.38;;;1.15;;
27265;SDS011;14766;51.380;13.762;2022-09-16T15:24:38;1.33;;;0.80;;
27265;SDS011;14766;51.380;13.762;2022-09-16T15:27:06;0.52;;;0.50;;
27265;SDS011;14766;51.380;13.762;2022-09-16T15:29:35;1.23;;;0.57;;
27265;SDS011;14766;51.380;13.762;2022-09-16T15:32:17;2.42;;;0.90;;
27265;SDS011;14766;51.380;13.762;2022-09-16T15:35:02;1.52;;;0.95;;
27265;SDS011;14766;51.380;13.762;2022-09-16T15:37:37;2.60;;;1.90;;
27265;SDS011;14766;51.380;13.762;2022-09-16T15:40:19;1.33;;;1.15;;
27265;SDS011;14766;51.380;13.762;2022-09-16T15:45:41;2.75;;;1.17;;
27265;SDS011;14766;51.380;13.762;2022-09-16T15:48:12;4.30;;;2.17;;
27265;SDS011;14766;51.380;13.762;2022-09-16T15:58:37;1.67;;;0.90;;
27265;SDS011;14766;51.380;13.762;2022-09-16T16:01:12;2.17;;;1.38;;
27265;SDS011;14766;51.380;13.762;2022-09-16T16:03:59;4.25;;;1.88;;
27265;SDS011;14766;51.380;13.762;2022-09-16T16:11:53;0.88;;;0.70;;
27265;SDS011;14766;51.380;13.762;2022-09-16T16:14:23;2.03;;;0.98;;
27265;SDS011;14766;51.380;13.762;2022-09-16T16:16:53;2.13;;;0.95;;
27265;SDS011;14766;51.380;13.762;2022-09-16T16:22:10;1.88;;;0.80;;
27265;SDS011;14766;51.380;13.762;2022-09-16T16:24:38;1.05;;;0.60;;
27265;SDS011;14766;51.380;13.762;2022-09-16T16:27:06;2.28;;;1.10;;
27265;SDS011;14766;51.380;13.762;2022-09-16T16:29:35;1.50;;;1.00;;
27265;SDS011;14766;51.380;13.762;2022-09-16T16:34:37;1.20;;;1.10;;
27265;SDS011;14766;51.380;13.762;2022-09-16T16:37:06;2.28;;;1.60;;
27265;SDS011;14766;51.380;13.762;2022-09-16T16:39:34;1.08;;;1.00;;
27265;SDS011;14766;51.380;13.762;2022-09-16T16:42:01;1.33;;;1.00;;
27265;SDS011;14766;51.380;13.762;2022-09-16T16:44:31;0.80;;;0.70;;
27265;SDS011;14766;51.380;13.762;2022-09-16T16:46:58;0.88;;;0.80;;
27265;SDS011;14766;51.380;13.762;2022-09-16T16:49:28;2.63;;;0.90;;
27265;SDS011;14766;51.380;13.762;2022-09-16T16:51:56;3.03;;;0.88;;
27265;SDS011;14766;51.380;13.762;2022-09-16T16:54:25;1.17;;;0.70;;
27265;SDS011;14766;51.380;13.762;2022-09-16T16:56:53;2.13;;;0.80;;
27265;SDS011;14766;51.380;13.762;2022-09-16T16:59:21;1.80;;;1.10;;
27265;SDS011;14766;51.380;13.762;2022-09-16T17:01:50;1.45;;;0.70;;
27265;SDS011;14766;51.380;13.762;2022-09-16T17:04:18;3.78;;;1.08;;
27265;SDS011;14766;51.380;13.762;2022-09-16T17:06:46;2.58;;;0.70;;
27265;SDS011;14766;51.380;13.762;2022-09-16T17:09:28;1.60;;;0.95;;
27265;SDS011;14766;51.380;13.762;2022-09-16T17:11:55;1.60;;;0.80;;
27265;SDS011;14766;51.380;13.762;2022-09-16T17:14:25;2.15;;;0.90;;
27265;SDS011;14766;51.380;13.762;2022-09-16T17:16:55;2.50;;;1.02;;
27265;SDS011;14766;51.380;13.762;2022-09-16T17:19:23;2.97;;;1.00;;
27265;SDS011;14766;51.380;13.762;2022-09-16T17:21:51;2.33;;;1.00;;
27265;SDS011;14766;51.380;13.762;2022-09-16T17:24:19;2.08;;;0.90;;
27265;SDS011;14766;51.380;13.762;2022-09-16T17:26:46;1.48;;;1.10;;
27265;SDS011;14766;51.380;13.762;2022-09-16T17:29:14;2.85;;;1.10;;
27265;SDS011;14766;51.380;13.762;2022-09-16T17:31:42;2.47;;;1.50;;
27265;SDS011;14766;51.380;13.762;2022-09-16T17:34:11;1.35;;;0.95;;
27265;SDS011;14766;51.380;13.762;2022-09-16T17:36:40;2.40;;;1.20;;
27265;SDS011;14766;51.380;13.762;2022-09-16T17:39:13;2.38;;;1.40;;
27265;SDS011;14766;51.380;13.762;2022-09-16T17:41:46;2.20;;;1.45;;
27265;SDS011;14766;51.380;13.762;2022-09-16T17:44:15;4.43;;;2.10;;
27265;SDS011;14766;51.380;13.762;2022-09-16T17:46:45;5.72;;;3.45;;
27265;SDS011;14766;51.380;13.762;2022-09-16T17:49:19;12.85;;;8.73;;
27265;SDS011;14766;51.380;13.762;2022-09-16T17:51:51;8.23;;;6.03;;
27265;SDS011;14766;51.380;13.762;2022-09-16T17:54:19;5.03;;;4.10;;
27265;SDS011;14766;51.380;13.762;2022-09-16T17:56:46;9.50;;;5.22;;
27265;SDS011;14766;51.380;13.762;2022-09-16T17:59:14;5.35;;;3.72;;
27265;SDS011;14766;51.380;13.762;2022-09-16T18:01:43;6.82;;;4.13;;
27265;SDS011;14766;51.380;13.762;2022-09-16T18:04:11;5.88;;;3.47;;
27265;SDS011;14766;51.380;13.762;2022-09-16T18:06:39;4.30;;;2.58;;
27265;SDS011;14766;51.380;13.762;2022-09-16T18:09:11;2.13;;;1.58;;
27265;SDS011;14766;51.380;13.762;2022-09-16T18:11:39;3.15;;;1.23;;
27265;SDS011;14766;51.380;13.762;2022-09-16T18:14:07;2.30;;;1.40;;
27265;SDS011;14766;51.380;13.762;2022-09-16T18:16:37;1.40;;;0.98;;
27265;SDS011;14766;51.380;13.762;2022-09-16T18:19:05;2.03;;;1.00;;
27265;SDS011;14766;51.380;13.762;2022-09-16T18:21:33;2.83;;;1.15;;
27265;SDS011;14766;51.380;13.762;2022-09-16T18:24:02;1.95;;;1.30;;
27265;SDS011;14766;51.380;13.762;2022-09-16T18:26:31;1.95;;;1.30;;
27265;SDS011;14766;51.380;13.762;2022-09-16T18:29:06;5.07;;;1.20;;